sensor_id;sensor_type;location;lat;lon;timestamp;P1;durP1;ratioP1;P2;durP2;ratioP2
64483;SDS011;50862;51.642;7.964;2022-07-30T00:02:10;6.43;;;3.20;;
64483;SDS011;50862;51.642;7.964;2022-07-30T00:04:38;4.43;;;2.50;;
64483;SDS011;50862;51.642;7.964;2022-07-30T00:07:07;3.33;;;2.65;;
64483;SDS011;50862;51.642;7.964;2022-07-30T00:09:36;4.65;;;3.17;;
64483;SDS011;50862;51.642;7.964;2022-07-30T00:12:05;3.58;;;2.53;;
64483;SDS011;50862;51.642;7.964;2022-07-30T00:14:34;4.93;;;2.00;;
64483;SDS011;50862;51.642;7.964;2022-07-30T00:17:03;4.38;;;2.65;;
64483;SDS011;50862;51.642;7.964;2022-07-30T00:19:32;4.68;;;2.38;;
64483;SDS011;50862;51.642;7.964;2022-07-30T00:22:00;3.47;;;2.75;;
64483;SDS011;50862;51.642;7.964;2022-07-30T00:24:30;2.70;;;2.47;;
64483;SDS011;50862;51.642;7.964;2022-07-30T00:26:58;5.15;;;2.63;;
64483;SDS011;50862;51.642;7.964;2022-07-30T00:29:27;3.13;;;2.60;;
64483;SDS011;50862;51.642;7.964;2022-07-30T00:31:56;4.45;;;2.88;;
64483;SDS011;50862;51.642;7.964;2022-07-30T00:34:24;4.18;;;2.33;;
64483;SDS011;50862;51.642;7.964;2022-07-30T00:36:52;6.55;;;2.53;;
64483;SDS011;50862;51.642;7.964;2022-07-30T00:39:20;5.07;;;2.70;;
64483;SDS011;50862;51.642;7.964;2022-07-30T00:41:53;3.38;;;2.60;;
64483;SDS011;50862;51.642;7.964;2022-07-30T00:44:22;3.95;;;2.55;;
64483;SDS011;50862;51.642;7.964;2022-07-30T00:46:51;4.93;;;2.80;;
64483;SDS011;50862;51.642;7.964;2022-07-30T00:49:19;6.47;;;3.05;;
64483;SDS011;50862;51.642;7.964;2022-07-30T00:51:48;4.28;;;2.67;;
64483;SDS011;50862;51.642;7.964;2022-07-30T00:54:17;5.32;;;3.13;;
64483;SDS011;50862;51.642;7.964;2022-07-30T00:56:46;2.85;;;2.30;;
64483;SDS011;50862;51.642;7.964;2022-07-30T00:59:16;4.68;;;3.28;;
64483;SDS011;50862;51.642;7.964;2022-07-30T01:01:44;5.22;;;2.60;;
64483;SDS011;50862;51.642;7.964;2022-07-30T01:04:12;4.13;;;2.63;;
64483;SDS011;50862;51.642;7.964;2022-07-30T01:06:40;4.15;;;2.65;;
64483;SDS011;50862;51.642;7.964;2022-07-30T01:09:08;3.00;;;2.70;;
64483;SDS011;50862;51.642;7.964;2022-07-30T01:11:38;3.35;;;2.40;;
64483;SDS011;50862;51.642;7.964;2022-07-30T01:14:07;5.05;;;2.70;;
64483;SDS011;50862;51.642;7.964;2022-07-30T01:16:38;5.85;;;3.10;;
64483;SDS011;50862;51.642;7.964;2022-07-30T01:19:10;3.30;;;2.83;;
64483;SDS011;50862;51.642;7.964;2022-07-30T01:21:59;5.15;;;2.70;;
64483;SDS011;50862;51.642;7.964;2022-07-30T01:24:46;5.55;;;3.28;;
64483;SDS011;50862;51.642;7.964;2022-07-30T01:27:24;3.13;;;2.80;;
64483;SDS011;50862;51.642;7.964;2022-07-30T01:29:54;4.82;;;2.65;;
64483;SDS011;50862;51.642;7.964;2022-07-30T01:32:23;4.30;;;3.00;;
64483;SDS011;50862;51.642;7.964;2022-07-30T01:34:53;5.25;;;2.83;;
64483;SDS011;50862;51.642;7.964;2022-07-30T01:37:24;4.63;;;2.67;;
64483;SDS011;50862;51.642;7.964;2022-07-30T01:39:53;4.88;;;3.35;;
64483;SDS011;50862;51.642;7.964;2022-07-30T01:42:24;7.05;;;3.22;;
64483;SDS011;50862;51.642;7.964;2022-07-30T01:44:55;3.22;;;2.90;;
64483;SDS011;50862;51.642;7.964;2022-07-30T01:47:24;4.00;;;3.17;;
64483;SDS011;50862;51.642;7.964;2022-07-30T01:49:55;3.03;;;2.60;;
64483;SDS011;50862;51.642;7.964;2022-07-30T01:52:25;3.80;;;3.08;;
64483;SDS011;50862;51.642;7.964;2022-07-30T01:54:57;4.70;;;3.03;;
64483;SDS011;50862;51.642;7.964;2022-07-30T01:57:28;3.50;;;2.88;;
64483;SDS011;50862;51.642;7.964;2022-07-30T01:59:58;5.22;;;3.03;;
64483;SDS011;50862;51.642;7.964;2022-07-30T02:02:29;6.03;;;2.95;;
64483;SDS011;50862;51.642;7.964;2022-07-30T02:04:57;7.05;;;3.30;;
64483;SDS011;50862;51.642;7.964;2022-07-30T02:07:27;3.80;;;3.50;;
64483;SDS011;50862;51.642;7.964;2022-07-30T02:10:02;4.57;;;3.00;;
64483;SDS011;50862;51.642;7.964;2022-07-30T02:12:35;6.10;;;3.08;;
64483;SDS011;50862;51.642;7.964;2022-07-30T02:15:09;4.32;;;3.28;;
64483;SDS011;50862;51.642;7.964;2022-07-30T02:17:42;5.38;;;3.40;;
64483;SDS011;50862;51.642;7.964;2022-07-30T02:20:16;6.35;;;3.85;;
64483;SDS011;50862;51.642;7.964;2022-07-30T02:22:50;8.40;;;3.67;;
64483;SDS011;50862;51.642;7.964;2022-07-30T02:25:21;5.63;;;3.35;;
64483;SDS011;50862;51.642;7.964;2022-07-30T02:27:55;5.70;;;3.47;;
64483;SDS011;50862;51.642;7.964;2022-07-30T02:30:29;4.90;;;3.80;;
64483;SDS011;50862;51.642;7.964;2022-07-30T02:33:00;8.55;;;4.47;;
64483;SDS011;50862;51.642;7.964;2022-07-30T02:35:31;5.75;;;4.35;;
64483;SDS011;50862;51.642;7.964;2022-07-30T02:38:00;4.78;;;4.05;;
64483;SDS011;50862;51.642;7.964;2022-07-30T02:40:30;7.80;;;4.85;;
64483;SDS011;50862;51.642;7.964;2022-07-30T02:43:00;7.30;;;4.95;;
64483;SDS011;50862;51.642;7.964;2022-07-30T02:45:28;6.95;;;4.88;;
64483;SDS011;50862;51.642;7.964;2022-07-30T02:47:58;7.95;;;4.68;;
64483;SDS011;50862;51.642;7.964;2022-07-30T02:50:29;8.63;;;4.22;;
64483;SDS011;50862;51.642;7.964;2022-07-30T02:52:58;10.10;;;4.63;;
64483;SDS011;50862;51.642;7.964;2022-07-30T02:55:28;6.40;;;4.28;;
64483;SDS011;50862;51.642;7.964;2022-07-30T02:58:03;9.55;;;5.22;;
64483;SDS011;50862;51.642;7.964;2022-07-30T03:00:33;7.88;;;4.28;;
64483;SDS011;50862;51.642;7.964;2022-07-30T03:03:04;6.20;;;4.13;;
64483;SDS011;50862;51.642;7.964;2022-07-30T03:05:33;7.47;;;4.53;;
64483;SDS011;50862;51.642;7.964;2022-07-30T03:08:02;7.22;;;5.18;;
64483;SDS011;50862;51.642;7.964;2022-07-30T03:10:33;8.18;;;4.78;;
64483;SDS011;50862;51.642;7.964;2022-07-30T03:13:04;12.25;;;4.57;;
64483;SDS011;50862;51.642;7.964;2022-07-30T03:15:34;7.22;;;4.53;;
64483;SDS011;50862;51.642;7.964;2022-07-30T03:18:05;9.38;;;5.03;;
64483;SDS011;50862;51.642;7.964;2022-07-30T03:20:37;8.07;;;4.88;;
64483;SDS011;50862;51.642;7.964;2022-07-30T03:23:06;9.73;;;5.35;;
64483;SDS011;50862;51.642;7.964;2022-07-30T03:25:37;12.10;;;5.63;;
64483;SDS011;50862;51.642;7.964;2022-07-30T03:28:07;11.43;;;5.60;;
64483;SDS011;50862;51.642;7.964;2022-07-30T03:30:37;9.15;;;5.43;;
64483;SDS011;50862;51.642;7.964;2022-07-30T03:33:05;7.28;;;5.50;;
64483;SDS011;50862;51.642;7.964;2022-07-30T03:35:34;7.30;;;5.40;;
64483;SDS011;50862;51.642;7.964;2022-07-30T03:38:02;8.68;;;5.88;;
64483;SDS011;50862;51.642;7.964;2022-07-30T03:40:31;12.18;;;6.03;;
64483;SDS011;50862;51.642;7.964;2022-07-30T03:43:00;6.90;;;6.13;;
64483;SDS011;50862;51.642;7.964;2022-07-30T03:45:30;10.98;;;6.38;;
64483;SDS011;50862;51.642;7.964;2022-07-30T03:47:59;18.23;;;6.75;;
64483;SDS011;50862;51.642;7.964;2022-07-30T03:50:28;10.23;;;6.07;;
64483;SDS011;50862;51.642;7.964;2022-07-30T03:52:57;9.10;;;6.28;;
64483;SDS011;50862;51.642;7.964;2022-07-30T03:55:25;10.07;;;6.10;;
64483;SDS011;50862;51.642;7.964;2022-07-30T03:57:54;8.43;;;6.20;;
64483;SDS011;50862;51.642;7.964;2022-07-30T04:00:22;12.98;;;6.95;;
64483;SDS011;50862;51.642;7.964;2022-07-30T04:02:52;10.45;;;6.55;;
64483;SDS011;50862;51.642;7.964;2022-07-30T04:05:21;8.90;;;6.65;;
64483;SDS011;50862;51.642;7.964;2022-07-30T04:07:50;10.80;;;5.90;;
64483;SDS011;50862;51.642;7.964;2022-07-30T04:10:19;9.75;;;5.53;;
64483;SDS011;50862;51.642;7.964;2022-07-30T04:12:47;11.88;;;6.35;;
64483;SDS011;50862;51.642;7.964;2022-07-30T04:15:15;11.82;;;6.30;;
64483;SDS011;50862;51.642;7.964;2022-07-30T04:18:05;8.93;;;5.80;;
64483;SDS011;50862;51.642;7.964;2022-07-30T04:20:36;9.07;;;6.10;;
64483;SDS011;50862;51.642;7.964;2022-07-30T04:23:07;9.63;;;6.15;;
64483;SDS011;50862;51.642;7.964;2022-07-30T04:25:36;10.45;;;5.85;;
64483;SDS011;50862;51.642;7.964;2022-07-30T04:28:06;13.10;;;6.47;;
64483;SDS011;50862;51.642;7.964;2022-07-30T04:30:37;7.95;;;5.43;;
64483;SDS011;50862;51.642;7.964;2022-07-30T04:33:07;11.20;;;5.82;;
64483;SDS011;50862;51.642;7.964;2022-07-30T04:35:35;10.77;;;6.05;;
64483;SDS011;50862;51.642;7.964;2022-07-30T04:38:17;11.88;;;5.82;;
64483;SDS011;50862;51.642;7.964;2022-07-30T04:40:46;13.07;;;6.38;;
64483;SDS011;50862;51.642;7.964;2022-07-30T04:43:14;6.57;;;5.50;;
64483;SDS011;50862;51.642;7.964;2022-07-30T04:45:43;8.55;;;5.80;;
64483;SDS011;50862;51.642;7.964;2022-07-30T04:48:13;9.73;;;5.75;;
64483;SDS011;50862;51.642;7.964;2022-07-30T04:50:42;11.23;;;6.38;;
64483;SDS011;50862;51.642;7.964;2022-07-30T04:53:15;8.00;;;5.45;;
64483;SDS011;50862;51.642;7.964;2022-07-30T04:55:45;11.02;;;5.70;;
64483;SDS011;50862;51.642;7.964;2022-07-30T04:58:15;8.65;;;5.97;;
64483;SDS011;50862;51.642;7.964;2022-07-30T05:00:47;7.80;;;4.70;;
64483;SDS011;50862;51.642;7.964;2022-07-30T05:03:18;10.82;;;6.40;;
64483;SDS011;50862;51.642;7.964;2022-07-30T05:05:50;9.65;;;5.35;;
64483;SDS011;50862;51.642;7.964;2022-07-30T05:08:22;10.18;;;6.10;;
64483;SDS011;50862;51.642;7.964;2022-07-30T05:10:52;11.07;;;5.30;;
64483;SDS011;50862;51.642;7.964;2022-07-30T05:13:20;18.90;;;8.02;;
64483;SDS011;50862;51.642;7.964;2022-07-30T05:15:59;12.70;;;6.05;;
64483;SDS011;50862;51.642;7.964;2022-07-30T05:18:29;7.88;;;5.18;;
64483;SDS011;50862;51.642;7.964;2022-07-30T05:20:57;8.02;;;5.70;;
64483;SDS011;50862;51.642;7.964;2022-07-30T05:23:25;6.10;;;5.20;;
64483;SDS011;50862;51.642;7.964;2022-07-30T05:25:53;7.72;;;5.43;;
64483;SDS011;50862;51.642;7.964;2022-07-30T05:28:22;18.65;;;5.75;;
64483;SDS011;50862;51.642;7.964;2022-07-30T05:30:52;10.48;;;6.28;;
64483;SDS011;50862;51.642;7.964;2022-07-30T05:33:22;13.35;;;5.60;;
64483;SDS011;50862;51.642;7.964;2022-07-30T05:36:09;11.00;;;5.90;;
64483;SDS011;50862;51.642;7.964;2022-07-30T05:38:37;10.75;;;6.00;;
64483;SDS011;50862;51.642;7.964;2022-07-30T05:41:05;9.52;;;6.22;;
64483;SDS011;50862;51.642;7.964;2022-07-30T05:43:53;10.68;;;6.88;;
64483;SDS011;50862;51.642;7.964;2022-07-30T05:46:22;8.90;;;6.10;;
64483;SDS011;50862;51.642;7.964;2022-07-30T05:48:50;9.52;;;6.25;;
64483;SDS011;50862;51.642;7.964;2022-07-30T05:51:20;9.98;;;6.53;;
64483;SDS011;50862;51.642;7.964;2022-07-30T05:53:48;9.32;;;5.05;;
64483;SDS011;50862;51.642;7.964;2022-07-30T05:56:16;8.35;;;6.25;;
64483;SDS011;50862;51.642;7.964;2022-07-30T05:58:44;8.65;;;5.63;;
64483;SDS011;50862;51.642;7.964;2022-07-30T06:01:12;9.25;;;5.82;;
64483;SDS011;50862;51.642;7.964;2022-07-30T06:03:41;9.85;;;6.30;;
64483;SDS011;50862;51.642;7.964;2022-07-30T06:06:09;10.13;;;6.45;;
64483;SDS011;50862;51.642;7.964;2022-07-30T06:08:39;9.48;;;6.13;;
64483;SDS011;50862;51.642;7.964;2022-07-30T06:11:07;12.15;;;6.63;;
64483;SDS011;50862;51.642;7.964;2022-07-30T06:13:36;7.93;;;5.68;;
64483;SDS011;50862;51.642;7.964;2022-07-30T06:16:04;10.50;;;6.60;;
64483;SDS011;50862;51.642;7.964;2022-07-30T06:18:32;7.80;;;6.22;;
64483;SDS011;50862;51.642;7.964;2022-07-30T06:21:00;7.75;;;6.10;;
64483;SDS011;50862;51.642;7.964;2022-07-30T06:23:28;11.73;;;7.05;;
64483;SDS011;50862;51.642;7.964;2022-07-30T06:25:58;11.90;;;6.53;;
64483;SDS011;50862;51.642;7.964;2022-07-30T06:28:26;10.82;;;6.63;;
64483;SDS011;50862;51.642;7.964;2022-07-30T06:31:04;9.23;;;7.45;;
64483;SDS011;50862;51.642;7.964;2022-07-30T06:33:32;9.02;;;6.38;;
64483;SDS011;50862;51.642;7.964;2022-07-30T06:36:01;13.60;;;7.15;;
64483;SDS011;50862;51.642;7.964;2022-07-30T06:38:29;9.52;;;6.60;;
64483;SDS011;50862;51.642;7.964;2022-07-30T06:40:58;11.80;;;6.68;;
64483;SDS011;50862;51.642;7.964;2022-07-30T06:43:29;8.88;;;5.72;;
64483;SDS011;50862;51.642;7.964;2022-07-30T06:45:58;10.27;;;6.40;;
64483;SDS011;50862;51.642;7.964;2022-07-30T06:48:26;7.10;;;6.18;;
64483;SDS011;50862;51.642;7.964;2022-07-30T06:50:56;10.75;;;6.18;;
64483;SDS011;50862;51.642;7.964;2022-07-30T06:53:24;8.93;;;6.13;;
64483;SDS011;50862;51.642;7.964;2022-07-30T06:55:53;14.38;;;6.43;;
64483;SDS011;50862;51.642;7.964;2022-07-30T06:58:27;11.23;;;6.47;;
64483;SDS011;50862;51.642;7.964;2022-07-30T07:00:55;8.80;;;6.38;;
64483;SDS011;50862;51.642;7.964;2022-07-30T07:03:23;14.52;;;7.13;;
64483;SDS011;50862;51.642;7.964;2022-07-30T07:06:06;10.27;;;6.72;;
64483;SDS011;50862;51.642;7.964;2022-07-30T07:08:35;11.77;;;6.50;;
64483;SDS011;50862;51.642;7.964;2022-07-30T07:11:03;8.82;;;6.60;;
64483;SDS011;50862;51.642;7.964;2022-07-30T07:13:34;9.82;;;6.45;;
64483;SDS011;50862;51.642;7.964;2022-07-30T07:16:02;11.18;;;5.78;;
64483;SDS011;50862;51.642;7.964;2022-07-30T07:18:31;12.77;;;6.10;;
64483;SDS011;50862;51.642;7.964;2022-07-30T07:20:59;11.63;;;5.85;;
64483;SDS011;50862;51.642;7.964;2022-07-30T07:23:27;10.90;;;6.43;;
64483;SDS011;50862;51.642;7.964;2022-07-30T07:26:06;6.13;;;5.00;;
64483;SDS011;50862;51.642;7.964;2022-07-30T07:28:36;12.05;;;5.28;;
64483;SDS011;50862;51.642;7.964;2022-07-30T07:31:06;9.57;;;6.18;;
64483;SDS011;50862;51.642;7.964;2022-07-30T07:33:35;5.97;;;5.30;;
64483;SDS011;50862;51.642;7.964;2022-07-30T07:36:03;10.30;;;5.50;;
64483;SDS011;50862;51.642;7.964;2022-07-30T07:38:32;10.93;;;5.93;;
64483;SDS011;50862;51.642;7.964;2022-07-30T07:41:01;9.00;;;5.68;;
64483;SDS011;50862;51.642;7.964;2022-07-30T07:43:30;10.82;;;4.80;;
64483;SDS011;50862;51.642;7.964;2022-07-30T07:46:00;8.10;;;5.68;;
64483;SDS011;50862;51.642;7.964;2022-07-30T07:48:29;9.75;;;5.43;;
64483;SDS011;50862;51.642;7.964;2022-07-30T07:50:57;10.65;;;6.18;;
64483;SDS011;50862;51.642;7.964;2022-07-30T07:53:26;9.43;;;5.20;;
64483;SDS011;50862;51.642;7.964;2022-07-30T07:55:54;6.88;;;4.40;;
64483;SDS011;50862;51.642;7.964;2022-07-30T07:58:23;6.50;;;4.38;;
64483;SDS011;50862;51.642;7.964;2022-07-30T08:00:52;7.53;;;4.88;;
64483;SDS011;50862;51.642;7.964;2022-07-30T08:03:21;7.75;;;4.82;;
64483;SDS011;50862;51.642;7.964;2022-07-30T08:05:50;10.32;;;5.45;;
64483;SDS011;50862;51.642;7.964;2022-07-30T08:08:31;8.48;;;4.68;;
64483;SDS011;50862;51.642;7.964;2022-07-30T08:11:02;11.15;;;5.53;;
64483;SDS011;50862;51.642;7.964;2022-07-30T08:13:31;9.57;;;4.63;;
64483;SDS011;50862;51.642;7.964;2022-07-30T08:16:18;5.07;;;4.10;;
64483;SDS011;50862;51.642;7.964;2022-07-30T08:18:48;11.75;;;4.82;;
64483;SDS011;50862;51.642;7.964;2022-07-30T08:21:16;8.75;;;4.70;;
64483;SDS011;50862;51.642;7.964;2022-07-30T08:23:44;4.45;;;3.85;;
64483;SDS011;50862;51.642;7.964;2022-07-30T08:26:12;6.90;;;3.97;;
64483;SDS011;50862;51.642;7.964;2022-07-30T08:28:40;6.82;;;4.35;;
64483;SDS011;50862;51.642;7.964;2022-07-30T08:31:11;10.23;;;4.10;;
64483;SDS011;50862;51.642;7.964;2022-07-30T08:33:39;8.43;;;4.78;;
64483;SDS011;50862;51.642;7.964;2022-07-30T08:36:09;6.70;;;4.45;;
64483;SDS011;50862;51.642;7.964;2022-07-30T08:38:37;6.97;;;3.80;;
64483;SDS011;50862;51.642;7.964;2022-07-30T08:41:05;7.45;;;4.32;;
64483;SDS011;50862;51.642;7.964;2022-07-30T08:43:34;11.52;;;4.45;;
64483;SDS011;50862;51.642;7.964;2022-07-30T08:46:03;6.68;;;4.68;;
64483;SDS011;50862;51.642;7.964;2022-07-30T08:48:35;8.00;;;4.60;;
64483;SDS011;50862;51.642;7.964;2022-07-30T08:51:05;5.88;;;4.50;;
64483;SDS011;50862;51.642;7.964;2022-07-30T08:53:35;7.40;;;4.88;;
64483;SDS011;50862;51.642;7.964;2022-07-30T08:56:05;7.85;;;3.80;;
64483;SDS011;50862;51.642;7.964;2022-07-30T08:58:33;7.18;;;4.70;;
64483;SDS011;50862;51.642;7.964;2022-07-30T09:01:02;8.73;;;4.18;;
64483;SDS011;50862;51.642;7.964;2022-07-30T09:03:34;7.72;;;4.53;;
64483;SDS011;50862;51.642;7.964;2022-07-30T09:06:10;11.48;;;5.07;;
64483;SDS011;50862;51.642;7.964;2022-07-30T09:08:39;8.15;;;4.15;;
64483;SDS011;50862;51.642;7.964;2022-07-30T09:11:08;9.93;;;4.70;;
64483;SDS011;50862;51.642;7.964;2022-07-30T09:13:36;4.80;;;3.30;;
64483;SDS011;50862;51.642;7.964;2022-07-30T09:16:17;8.88;;;4.82;;
64483;SDS011;50862;51.642;7.964;2022-07-30T09:18:45;11.73;;;5.78;;
64483;SDS011;50862;51.642;7.964;2022-07-30T09:21:15;9.38;;;5.68;;
64483;SDS011;50862;51.642;7.964;2022-07-30T09:23:56;10.27;;;6.40;;
64483;SDS011;50862;51.642;7.964;2022-07-30T09:26:25;13.65;;;6.03;;
64483;SDS011;50862;51.642;7.964;2022-07-30T09:28:54;22.52;;;7.82;;
64483;SDS011;50862;51.642;7.964;2022-07-30T09:31:51;18.85;;;8.20;;
64483;SDS011;50862;51.642;7.964;2022-07-30T09:34:24;17.35;;;7.25;;
64483;SDS011;50862;51.642;7.964;2022-07-30T09:36:54;18.80;;;8.05;;
64483;SDS011;50862;51.642;7.964;2022-07-30T09:39:32;16.13;;;8.10;;
64483;SDS011;50862;51.642;7.964;2022-07-30T09:42:02;14.52;;;7.57;;
64483;SDS011;50862;51.642;7.964;2022-07-30T09:44:42;14.15;;;7.28;;
64483;SDS011;50862;51.642;7.964;2022-07-30T09:47:13;13.05;;;6.22;;
64483;SDS011;50862;51.642;7.964;2022-07-30T09:50:00;11.18;;;5.75;;
64483;SDS011;50862;51.642;7.964;2022-07-30T09:52:33;9.40;;;5.80;;
64483;SDS011;50862;51.642;7.964;2022-07-30T09:55:10;11.15;;;6.72;;
64483;SDS011;50862;51.642;7.964;2022-07-30T09:57:52;12.07;;;6.28;;
64483;SDS011;50862;51.642;7.964;2022-07-30T10:00:24;12.60;;;6.30;;
64483;SDS011;50862;51.642;7.964;2022-07-30T10:02:54;8.40;;;4.50;;
64483;SDS011;50862;51.642;7.964;2022-07-30T10:05:22;13.23;;;7.50;;
64483;SDS011;50862;51.642;7.964;2022-07-30T10:07:51;12.57;;;7.72;;
64483;SDS011;50862;51.642;7.964;2022-07-30T10:10:24;11.15;;;6.20;;
64483;SDS011;50862;51.642;7.964;2022-07-30T10:12:59;13.18;;;7.55;;
64483;SDS011;50862;51.642;7.964;2022-07-30T10:15:31;11.95;;;7.35;;
64483;SDS011;50862;51.642;7.964;2022-07-30T10:18:01;12.73;;;7.28;;
64483;SDS011;50862;51.642;7.964;2022-07-30T10:20:32;13.60;;;7.15;;
64483;SDS011;50862;51.642;7.964;2022-07-30T10:23:01;13.27;;;7.63;;
64483;SDS011;50862;51.642;7.964;2022-07-30T10:25:35;18.17;;;6.55;;
64483;SDS011;50862;51.642;7.964;2022-07-30T10:28:20;12.07;;;6.88;;
64483;SDS011;50862;51.642;7.964;2022-07-30T10:30:49;10.38;;;6.70;;
64483;SDS011;50862;51.642;7.964;2022-07-30T10:33:19;14.27;;;7.55;;
64483;SDS011;50862;51.642;7.964;2022-07-30T10:36:05;10.68;;;5.82;;
64483;SDS011;50862;51.642;7.964;2022-07-30T10:38:39;10.27;;;6.75;;
64483;SDS011;50862;51.642;7.964;2022-07-30T10:41:22;11.15;;;5.18;;
64483;SDS011;50862;51.642;7.964;2022-07-30T10:47:15;9.32;;;4.88;;
64483;SDS011;50862;51.642;7.964;2022-07-30T10:52:45;8.38;;;5.47;;
64483;SDS011;50862;51.642;7.964;2022-07-30T10:55:17;5.53;;;4.22;;
64483;SDS011;50862;51.642;7.964;2022-07-30T10:58:06;8.90;;;5.35;;
64483;SDS011;50862;51.642;7.964;2022-07-30T11:00:35;6.97;;;4.53;;
64483;SDS011;50862;51.642;7.964;2022-07-30T11:03:26;8.77;;;5.32;;
64483;SDS011;50862;51.642;7.964;2022-07-30T11:06:23;5.32;;;3.67;;
64483;SDS011;50862;51.642;7.964;2022-07-30T11:08:53;9.13;;;3.95;;
64483;SDS011;50862;51.642;7.964;2022-07-30T11:11:41;8.68;;;4.38;;
64483;SDS011;50862;51.642;7.964;2022-07-30T11:18:00;6.28;;;3.50;;
64483;SDS011;50862;51.642;7.964;2022-07-30T11:20:38;7.03;;;4.55;;
64483;SDS011;50862;51.642;7.964;2022-07-30T11:26:04;7.70;;;4.50;;
64483;SDS011;50862;51.642;7.964;2022-07-30T11:28:40;11.65;;;4.40;;
64483;SDS011;50862;51.642;7.964;2022-07-30T11:31:28;9.63;;;6.30;;
64483;SDS011;50862;51.642;7.964;2022-07-30T11:34:27;9.10;;;4.70;;
64483;SDS011;50862;51.642;7.964;2022-07-30T11:37:06;5.75;;;4.53;;
64483;SDS011;50862;51.642;7.964;2022-07-30T11:40:06;6.13;;;3.90;;
64483;SDS011;50862;51.642;7.964;2022-07-30T11:42:37;8.73;;;5.43;;
64483;SDS011;50862;51.642;7.964;2022-07-30T11:45:22;8.02;;;4.72;;
64483;SDS011;50862;51.642;7.964;2022-07-30T11:47:57;4.55;;;3.83;;
64483;SDS011;50862;51.642;7.964;2022-07-30T11:50:29;6.85;;;3.50;;
64483;SDS011;50862;51.642;7.964;2022-07-30T11:53:00;4.38;;;3.28;;
64483;SDS011;50862;51.642;7.964;2022-07-30T11:55:31;5.03;;;2.75;;
64483;SDS011;50862;51.642;7.964;2022-07-30T11:58:01;3.55;;;2.78;;
64483;SDS011;50862;51.642;7.964;2022-07-30T12:00:35;4.45;;;2.60;;
64483;SDS011;50862;51.642;7.964;2022-07-30T12:03:10;5.20;;;3.00;;
64483;SDS011;50862;51.642;7.964;2022-07-30T12:05:40;4.85;;;2.72;;
64483;SDS011;50862;51.642;7.964;2022-07-30T12:08:09;5.85;;;3.28;;
64483;SDS011;50862;51.642;7.964;2022-07-30T12:10:58;3.92;;;3.10;;
64483;SDS011;50862;51.642;7.964;2022-07-30T12:13:28;6.53;;;2.92;;
64483;SDS011;50862;51.642;7.964;2022-07-30T12:16:12;4.25;;;2.70;;
64483;SDS011;50862;51.642;7.964;2022-07-30T12:18:44;3.55;;;2.30;;
64483;SDS011;50862;51.642;7.964;2022-07-30T12:21:13;4.82;;;2.30;;
64483;SDS011;50862;51.642;7.964;2022-07-30T12:23:42;6.10;;;2.20;;
64483;SDS011;50862;51.642;7.964;2022-07-30T12:26:21;2.40;;;2.15;;
64483;SDS011;50862;51.642;7.964;2022-07-30T12:28:52;6.68;;;2.50;;
64483;SDS011;50862;51.642;7.964;2022-07-30T12:31:21;3.63;;;1.98;;
64483;SDS011;50862;51.642;7.964;2022-07-30T12:33:51;3.58;;;1.83;;
64483;SDS011;50862;51.642;7.964;2022-07-30T12:36:25;4.05;;;1.85;;
64483;SDS011;50862;51.642;7.964;2022-07-30T12:38:56;4.47;;;2.08;;
64483;SDS011;50862;51.642;7.964;2022-07-30T12:41:41;5.32;;;2.22;;
64483;SDS011;50862;51.642;7.964;2022-07-30T12:44:21;4.10;;;2.50;;
64483;SDS011;50862;51.642;7.964;2022-07-30T12:47:00;2.50;;;1.80;;
64483;SDS011;50862;51.642;7.964;2022-07-30T12:49:32;3.15;;;1.90;;
64483;SDS011;50862;51.642;7.964;2022-07-30T12:52:18;6.93;;;1.88;;
64483;SDS011;50862;51.642;7.964;2022-07-30T12:54:58;3.97;;;1.80;;
64483;SDS011;50862;51.642;7.964;2022-07-30T12:57:27;4.90;;;2.25;;
64483;SDS011;50862;51.642;7.964;2022-07-30T13:00:16;4.15;;;2.60;;
64483;SDS011;50862;51.642;7.964;2022-07-30T13:02:44;5.57;;;2.83;;
64483;SDS011;50862;51.642;7.964;2022-07-30T13:05:14;6.53;;;2.83;;
64483;SDS011;50862;51.642;7.964;2022-07-30T13:07:55;9.63;;;2.80;;
64483;SDS011;50862;51.642;7.964;2022-07-30T13:10:25;4.97;;;2.33;;
64483;SDS011;50862;51.642;7.964;2022-07-30T13:12:56;3.08;;;2.72;;
64483;SDS011;50862;51.642;7.964;2022-07-30T13:15:25;6.90;;;2.75;;
64483;SDS011;50862;51.642;7.964;2022-07-30T13:17:53;5.68;;;2.53;;
64483;SDS011;50862;51.642;7.964;2022-07-30T13:20:22;9.50;;;2.97;;
64483;SDS011;50862;51.642;7.964;2022-07-30T13:22:50;7.95;;;3.60;;
64483;SDS011;50862;51.642;7.964;2022-07-30T13:25:25;4.72;;;3.10;;
64483;SDS011;50862;51.642;7.964;2022-07-30T13:28:05;7.80;;;3.55;;
64483;SDS011;50862;51.642;7.964;2022-07-30T13:30:33;5.55;;;3.35;;
64483;SDS011;50862;51.642;7.964;2022-07-30T13:33:02;5.85;;;3.85;;
64483;SDS011;50862;51.642;7.964;2022-07-30T13:35:31;6.30;;;3.13;;
64483;SDS011;50862;51.642;7.964;2022-07-30T13:37:59;6.82;;;3.00;;
64483;SDS011;50862;51.642;7.964;2022-07-30T13:40:28;4.75;;;3.05;;
64483;SDS011;50862;51.642;7.964;2022-07-30T13:42:57;2.55;;;2.35;;
64483;SDS011;50862;51.642;7.964;2022-07-30T13:45:26;6.30;;;3.47;;
64483;SDS011;50862;51.642;7.964;2022-07-30T13:47:54;3.90;;;3.50;;
64483;SDS011;50862;51.642;7.964;2022-07-30T13:50:23;6.10;;;3.33;;
64483;SDS011;50862;51.642;7.964;2022-07-30T13:52:52;6.78;;;3.20;;
64483;SDS011;50862;51.642;7.964;2022-07-30T13:55:27;4.97;;;3.10;;
64483;SDS011;50862;51.642;7.964;2022-07-30T13:57:55;6.50;;;2.42;;
64483;SDS011;50862;51.642;7.964;2022-07-30T14:00:24;3.38;;;2.63;;
64483;SDS011;50862;51.642;7.964;2022-07-30T14:02:58;5.85;;;3.00;;
64483;SDS011;50862;51.642;7.964;2022-07-30T14:05:27;5.40;;;3.05;;
64483;SDS011;50862;51.642;7.964;2022-07-30T14:07:56;8.13;;;3.10;;
64483;SDS011;50862;51.642;7.964;2022-07-30T14:10:25;8.05;;;3.08;;
64483;SDS011;50862;51.642;7.964;2022-07-30T14:12:53;6.78;;;2.85;;
64483;SDS011;50862;51.642;7.964;2022-07-30T14:15:23;5.25;;;2.90;;
64483;SDS011;50862;51.642;7.964;2022-07-30T14:17:52;5.50;;;3.10;;
64483;SDS011;50862;51.642;7.964;2022-07-30T14:20:22;7.93;;;3.05;;
64483;SDS011;50862;51.642;7.964;2022-07-30T14:22:54;6.50;;;2.88;;
64483;SDS011;50862;51.642;7.964;2022-07-30T14:25:24;3.83;;;2.40;;
64483;SDS011;50862;51.642;7.964;2022-07-30T14:27:52;3.88;;;2.20;;
64483;SDS011;50862;51.642;7.964;2022-07-30T14:30:20;4.03;;;2.10;;
64483;SDS011;50862;51.642;7.964;2022-07-30T14:32:49;4.70;;;2.25;;
64483;SDS011;50862;51.642;7.964;2022-07-30T14:35:26;3.78;;;1.92;;
64483;SDS011;50862;51.642;7.964;2022-07-30T14:37:55;2.55;;;2.05;;
64483;SDS011;50862;51.642;7.964;2022-07-30T14:40:24;1.98;;;1.65;;
64483;SDS011;50862;51.642;7.964;2022-07-30T14:42:52;1.77;;;1.67;;
64483;SDS011;50862;51.642;7.964;2022-07-30T14:45:22;1.70;;;1.60;;
64483;SDS011;50862;51.642;7.964;2022-07-30T14:47:51;1.80;;;1.67;;
64483;SDS011;50862;51.642;7.964;2022-07-30T14:50:19;1.65;;;1.17;;
64483;SDS011;50862;51.642;7.964;2022-07-30T14:52:47;3.55;;;1.48;;
64483;SDS011;50862;51.642;7.964;2022-07-30T14:55:17;2.58;;;1.10;;
64483;SDS011;50862;51.642;7.964;2022-07-30T14:57:46;1.83;;;1.40;;
64483;SDS011;50862;51.642;7.964;2022-07-30T15:00:15;1.73;;;1.17;;
64483;SDS011;50862;51.642;7.964;2022-07-30T15:02:43;3.22;;;1.48;;
64483;SDS011;50862;51.642;7.964;2022-07-30T15:05:11;1.70;;;1.10;;
64483;SDS011;50862;51.642;7.964;2022-07-30T15:07:40;6.38;;;1.50;;
64483;SDS011;50862;51.642;7.964;2022-07-30T15:10:08;1.80;;;1.05;;
64483;SDS011;50862;51.642;7.964;2022-07-30T15:12:36;4.75;;;1.63;;
64483;SDS011;50862;51.642;7.964;2022-07-30T15:15:06;3.50;;;1.25;;
64483;SDS011;50862;51.642;7.964;2022-07-30T15:17:38;8.07;;;1.48;;
64483;SDS011;50862;51.642;7.964;2022-07-30T15:20:07;2.03;;;0.98;;
64483;SDS011;50862;51.642;7.964;2022-07-30T15:22:36;1.98;;;1.00;;